Jette Viking Hv77 — 5QEP — position and weather

sailwx.info

Track history (hours):
 
Tides and Currents Weather Stations Pressure Air Temp Water Temp Dewpoint Dewpoint Depression Visibility Wind Speed Wind Dir Waves Ship Positions

Jette Viking Hv77

Last reported at 2014-Jul-30 05:29 UTC. Time now 2014-Jul-30 07:10 UTC.
Position N 57°30' E 010°30'.

Length 16 m.

Type: Fishing. MMSI: 220046000.

Date/timePositionNaut miles runAvg speedWind from/ knotsBaromVisibWave heightAir tempDewpointWater temp
2014-Jul-30 05:29N 57°30' E 010°30'2 1.6
2014-Jul-30 04:30N 57°29' E 010°33'7 6.9
2014-Jul-30 03:32N 57°26' E 010°44'3 1.6
2014-Jul-30 01:31N 57°29' E 010°44'2 2.6
2014-Jul-30 00:33N 57°32' E 010°43'3 2.5
2014-Jul-29 23:33N 57°34' E 010°43'0 0.1
2014-Jul-29 22:33N 57°34' E 010°43'3 2.6
2014-Jul-29 21:33N 57°32' E 010°43'7 0.4
2014-Jul-29 05:11N 57°30' E 010°30'2 2.5
2014-Jul-29 04:33N 57°30' E 010°33'7 7.2
2014-Jul-29 03:33N 57°29' E 010°46'2 2.5
2014-Jul-29 02:33N 57°30' E 010°51'3 2.6
2014-Jul-29 01:33N 57°31' E 010°55'3 2.6
2014-Jul-29 00:32N 57°33' E 010°59'3 2.6
2014-Jul-28 23:17N 57°35' E 011°02'0 0.2
2014-Jul-28 22:33N 57°36' E 011°02'3 2.5
2014-Jul-28 21:32N 57°33' E 010°59'2 2.5
2014-Jul-28 20:33N 57°32' E 010°56'3 2.6
2014-Jul-28 19:25N 57°30' E 010°52'3 3.5
2014-Jul-28 18:30N 57°29' E 010°46'8 8.3
2014-Jul-28 17:33N 57°30' E 010°32'1 0.7
2014-Jul-28 16:25N 57°30' E 010°30'0 0.0
2014-Jul-28 10:34N 57°30' E 010°30'0 0.0
2014-Jul-28 09:30N 57°30' E 010°30'0 0.0
2014-Jul-28 05:27N 57°30' E 010°30'2 1.6
2014-Jul-28 04:30N 57°30' E 010°33'10 5.1
2014-Jul-28 02:29N 57°30' E 010°52'2 2.6
2014-Jul-28 01:33N 57°31' E 010°55'6 2.5
2014-Jul-27 23:20N 57°36' E 011°01'0 0.5
2014-Jul-27 22:29N 57°36' E 011°01'3 2.5
2014-Jul-27 21:24N 57°33' E 010°59'2 2.5
2014-Jul-27 20:33N 57°32' E 010°56'3 2.6
2014-Jul-27 19:31N 57°30' E 010°52'5 4.9
2014-Jul-27 18:33N 57°29' E 010°44'7 1.7
2014-Jul-27 14:17N 57°30' E 010°30'0 0.0
2014-Jul-27 13:33N 57°30' E 010°30'0 0.0
2014-Jul-27 12:34N 57°30' E 010°30'0 0.0
2014-Jul-27 11:26N 57°30' E 010°30'0 0.0
2014-Jul-27 08:32N 57°30' E 010°30'0 0.0
2014-Jul-27 00:17N 57°30' E 010°30'0 0.0
2014-Jul-26 23:33N 57°30' E 010°30'0 0.0
2014-Jul-26 22:32N 57°30' E 010°30'0 0.0
2014-Jul-26 21:05N 57°30' E 010°30'0 0.0
2014-Jul-26 20:33N 57°30' E 010°30'0 0.0
2014-Jul-26 19:33N 57°30' E 010°30'0 0.0
2014-Jul-26 18:34N 57°30' E 010°30'0 0.0
2014-Jul-26 17:33N 57°30' E 010°30'0 0.0
2014-Jul-26 14:33N 57°30' E 010°30'0 0.0
2014-Jul-26 13:33N 57°30' E 010°30'0 0.0
2014-Jul-26 12:10N 57°30' E 010°30'0 0.0
2014-Jul-26 11:33N 57°30' E 010°30'0 0.0
2014-Jul-26 10:32N 57°30' E 010°30'0 0.0
2014-Jul-26 09:29N 57°30' E 010°30'0 0.0
2014-Jul-26 08:33N 57°30' E 010°30'0 0.0
2014-Jul-26 07:23N 57°30' E 010°30'0 0.0
2014-Jul-26 06:33N 57°30' E 010°30'0 0.0
2014-Jul-26 05:33N 57°30' E 010°30'0 0.0
2014-Jul-26 04:33N 57°30' E 010°30'0 0.0
2014-Jul-26 03:33N 57°30' E 010°30'0 0.0
2014-Jul-26 02:33N 57°30' E 010°30'0 0.0
2014-Jul-26 01:32N 57°30' E 010°30'0 0.0
2014-Jul-26 00:34N 57°30' E 010°30'0 0.0
2014-Jul-25 23:33N 57°30' E 010°30'0 0.0
2014-Jul-25 22:32N 57°30' E 010°30'0 0.0
2014-Jul-25 21:33N 57°30' E 010°30'0 0.0
2014-Jul-25 20:33N 57°30' E 010°30'0 0.0
2014-Jul-25 19:11N 57°30' E 010°30'0 0.0
2014-Jul-25 17:33N 57°30' E 010°30'0 0.0
2014-Jul-25 16:33N 57°30' E 010°30'0 0.0
2014-Jul-25 13:29N 57°30' E 010°30'0 0.0
2014-Jul-25 10:08N 57°30' E 010°30'0 0.0
2014-Jul-25 09:33N 57°30' E 010°30'0 0.0
2014-Jul-25 08:33N 57°30' E 010°30'0 0.0
2014-Jul-25 07:32N 57°30' E 010°30'0 0.0
2014-Jul-25 06:33N 57°30' E 010°30'0 0.0
2014-Jul-25 05:32N 57°30' E 010°30'2 1.7
2014-Jul-25 04:33N 57°30' E 010°34'5 4.9
2014-Jul-25 03:33N 57°28' E 010°42'3 3.2
2014-Jul-25 02:33N 57°27' E 010°48'3 2.6
2014-Jul-25 01:33N 57°30' E 010°47'3 2.7
2014-Jul-25 00:34N 57°33' E 010°47'3 2.7
2014-Jul-24 23:34N 57°35' E 010°47'1 0.7
2014-Jul-24 22:34N 57°36' E 010°47'3 2.6
2014-Jul-24 21:34N 57°34' E 010°49'3 2.6
2014-Jul-24 20:34N 57°31' E 010°49'3 2.5
2014-Jul-24 19:33N 57°28' E 010°48'5 4.8
2014-Jul-24 18:33N 57°28' E 010°39'5 4.9
2014-Jul-24 17:33N 57°30' E 010°30'0 0.0
2014-Jul-24 16:33N 57°30' E 010°30'0 0.0
2014-Jul-24 15:33N 57°30' E 010°30'0 0.0
2014-Jul-24 14:18N 57°30' E 010°30'0 0.0
2014-Jul-24 13:30N 57°30' E 010°30'0 0.0
2014-Jul-24 11:32N 57°30' E 010°30'0 0.0
2014-Jul-24 10:33N 57°30' E 010°30'0 0.0
2014-Jul-24 09:33N 57°30' E 010°30'0 0.0
2014-Jul-24 08:34N 57°30' E 010°30'0 0.0
2014-Jul-24 07:23N 57°30' E 010°30'0 0.0
2014-Jul-24 06:31N 57°30' E 010°30'0 0.0
2014-Jul-24 05:33N 57°30' E 010°30'2 2.0
2014-Jul-24 04:34N 57°31' E 010°34'6 5.8
2014-Jul-24 03:33N 57°30' E 010°45'4 3.6
2014-Jul-24 02:33N 57°30' E 010°51'2 2.5
2014-Jul-24 01:34N 57°32' E 010°54'2 2.4
2014-Jul-24 00:33N 57°34' E 010°56'3 2.5
2014-Jul-23 23:33N 57°37' E 010°56'1 0.8
2014-Jul-23 22:33N 57°37' E 010°56'2 2.5
2014-Jul-23 21:33N 57°35' E 010°54'3 2.6
2014-Jul-23 20:33N 57°33' E 010°53'3 2.5
2014-Jul-23 19:33N 57°30' E 010°52'6 5.6
2014-Jul-23 18:33N 57°30' E 010°41'6 5.9
2014-Jul-23 17:33N 57°30' E 010°30'0 0.0
2014-Jul-23 15:08N 57°30' E 010°30'0 0.0
2014-Jul-23 14:08N 57°30' E 010°30'0 0.0
2014-Jul-23 13:33N 57°30' E 010°30'0 0.0
2014-Jul-23 12:33N 57°30' E 010°30'0 0.0
2014-Jul-23 11:33N 57°30' E 010°30'0 0.0
2014-Jul-23 10:33N 57°30' E 010°30'0 0.0
2014-Jul-23 09:33N 57°30' E 010°30'0 0.0
2014-Jul-23 08:14N 57°30' E 010°30'0 0.0
2014-Jul-23 07:34N 57°30' E 010°30'0 0.0
2014-Jul-23 06:33N 57°30' E 010°30'0 0.0
2014-Jul-23 05:27N 57°30' E 010°30'2 2.5
2014-Jul-23 04:33N 57°31' E 010°34'5 4.8
2014-Jul-23 03:33N 57°30' E 010°43'4 4.3
2014-Jul-23 02:33N 57°30' E 010°51'3 2.5
2014-Jul-23 01:33N 57°32' E 010°54'3 2.5
2014-Jul-23 00:33N 57°34' E 010°56'2 2.5
2014-Jul-22 23:33N 57°37' E 010°57'1 0.6
2014-Jul-22 22:32N 57°37' E 010°56'3 2.5
2014-Jul-22 21:31N 57°35' E 010°55'2 2.5
2014-Jul-22 20:33N 57°32' E 010°55'3 2.5
2014-Jul-22 19:33N 57°30' E 010°52'5 5.5
2014-Jul-22 18:33N 57°30' E 010°42'6 6.2
2014-Jul-22 17:34N 57°30' E 010°30'0 0.0
2014-Jul-22 16:33N 57°30' E 010°30'0 0.0
2014-Jul-22 15:34N 57°30' E 010°30'0 0.0
2014-Jul-22 14:33N 57°30' E 010°30'0 0.0
2014-Jul-22 13:33N 57°30' E 010°30'0 0.0
2014-Jul-22 12:34N 57°30' E 010°30'0 0.0
2014-Jul-22 11:33N 57°30' E 010°30'0 0.0
2014-Jul-22 10:33N 57°30' E 010°30'0 0.0
2014-Jul-22 09:33N 57°30' E 010°30'0 0.0
2014-Jul-22 08:33N 57°30' E 010°30'0 0.0
2014-Jul-22 07:34N 57°30' E 010°30'0 0.0
2014-Jul-22 06:33N 57°30' E 010°30'0 0.0
2014-Jul-22 05:33N 57°30' E 010°30'4 4.3
2014-Jul-22 04:33N 57°31' E 010°38'8 8.1
2014-Jul-22 03:33N 57°34' E 010°52'6 6.5
2014-Jul-22 02:33N 57°37' E 011°02'2 2.2
2014-Jul-22 01:33N 57°39' E 011°05'3 2.5
2014-Jul-22 00:33N 57°41' E 011°06'3 2.5
2014-Jul-21 23:33N 57°43' E 011°04'1 0.7
2014-Jul-21 22:34N 57°44' E 011°02'2 2.3
2014-Jul-21 21:33N 57°42' E 011°06'3 2.5
2014-Jul-21 20:33N 57°40' E 011°06'1 2.5
2014-Jul-21 20:18N 57°39' E 011°05'2 3.0
2014-Jul-21 19:33N 57°37' E 011°03'7 7.3
2014-Jul-21 18:32N 57°34' E 010°51'8 7.8
2014-Jul-21 17:33N 57°31' E 010°37'4 3.5
2014-Jul-21 16:24N 57°30' E 010°30'0 0.0
2014-Jul-21 15:33N 57°30' E 010°30'0 0.0
2014-Jul-21 14:31N 57°30' E 010°30'0 0.0
2014-Jul-21 13:24N 57°30' E 010°30'0 0.0
2014-Jul-21 12:32N 57°30' E 010°30'0 0.0
2014-Jul-21 11:33N 57°30' E 010°30'0 0.0
2014-Jul-21 10:33N 57°30' E 010°30'0 0.0
2014-Jul-21 09:33N 57°30' E 010°30'0 0.0
2014-Jul-21 08:33N 57°30' E 010°30'0 0.0
2014-Jul-21 07:31N 57°30' E 010°30'0 0.0
2014-Jul-21 06:33N 57°30' E 010°30'1 0.9
2014-Jul-21 05:27N 57°30' E 010°32'1 1.6
2014-Jul-21 04:32N 57°30' E 010°35'7 7.2
2014-Jul-21 03:31N 57°30' E 010°48'3 3.3
2014-Jul-21 02:32N 57°30' E 010°54'2 2.5
2014-Jul-21 01:33N 57°32' E 010°57'2 2.5
2014-Jul-21 00:33N 57°34' E 010°60'3 2.6
2014-Jul-20 23:33N 57°35' E 011°03'2 1.7
2014-Jul-20 22:34N 57°34' E 011°02'3 2.5
2014-Jul-20 21:34N 57°32' E 010°59'3 2.5
2014-Jul-20 20:34N 57°30' E 010°55'3 3.0
2014-Jul-20 19:33N 57°29' E 010°50'9 7.7
2014-Jul-20 18:26N 57°29' E 010°34'2 2.2
2014-Jul-20 17:32N 57°30' E 010°30'0 0.0
2014-Jul-20 16:33N 57°30' E 010°30'0 0.0
2014-Jul-20 15:33N 57°30' E 010°30'0 0.0
2014-Jul-20 14:33N 57°30' E 010°30'0 0.0
2014-Jul-20 13:33N 57°30' E 010°30'0 0.0
2014-Jul-20 12:33N 57°30' E 010°30'0 0.0
2014-Jul-20 11:33N 57°30' E 010°30'0 0.0
2014-Jul-20 10:32N 57°30' E 010°30'0 0.0
2014-Jul-20 07:11N 57°30' E 010°30'0 0.0
2014-Jul-20 06:21N 57°30' E 010°30'  
Track history (hours):
 
Tides and Currents Weather Stations Pressure Air Temp Water Temp Dewpoint Dewpoint Depression Visibility Wind Speed Wind Dir Waves Ship Positions

Jette Viking Hv77

Last reported at 2014-Jul-30 05:29 UTC. Time now 2014-Jul-30 07:10 UTC.
Position N 57°30' E 010°30'.

Length 16 m.

Type: Fishing. MMSI: 220046000.

Date/timePositionNaut miles runAvg speedWind from/ knotsBaromVisibWave heightAir tempDewpointWater temp
2014-Jul-30 05:29N 57°30' E 010°30'2 1.6
2014-Jul-30 04:30N 57°29' E 010°33'7 6.9
2014-Jul-30 03:32N 57°26' E 010°44'3 1.6
2014-Jul-30 01:31N 57°29' E 010°44'2 2.6
2014-Jul-30 00:33N 57°32' E 010°43'3 2.5
2014-Jul-29 23:33N 57°34' E 010°43'0 0.1
2014-Jul-29 22:33N 57°34' E 010°43'3 2.6
2014-Jul-29 21:33N 57°32' E 010°43'7 0.4
2014-Jul-29 05:11N 57°30' E 010°30'2 2.5
2014-Jul-29 04:33N 57°30' E 010°33'7 7.2
2014-Jul-29 03:33N 57°29' E 010°46'2 2.5
2014-Jul-29 02:33N 57°30' E 010°51'3 2.6
2014-Jul-29 01:33N 57°31' E 010°55'3 2.6
2014-Jul-29 00:32N 57°33' E 010°59'3 2.6
2014-Jul-28 23:17N 57°35' E 011°02'0 0.2
2014-Jul-28 22:33N 57°36' E 011°02'3 2.5
2014-Jul-28 21:32N 57°33' E 010°59'2 2.5
2014-Jul-28 20:33N 57°32' E 010°56'3 2.6
2014-Jul-28 19:25N 57°30' E 010°52'3 3.5
2014-Jul-28 18:30N 57°29' E 010°46'8 8.3
2014-Jul-28 17:33N 57°30' E 010°32'1 0.7
2014-Jul-28 16:25N 57°30' E 010°30'0 0.0
2014-Jul-28 10:34N 57°30' E 010°30'0 0.0
2014-Jul-28 09:30N 57°30' E 010°30'0 0.0
2014-Jul-28 05:27N 57°30' E 010°30'2 1.6
2014-Jul-28 04:30N 57°30' E 010°33'10 5.1
2014-Jul-28 02:29N 57°30' E 010°52'2 2.6
2014-Jul-28 01:33N 57°31' E 010°55'6 2.5
2014-Jul-27 23:20N 57°36' E 011°01'0 0.5
2014-Jul-27 22:29N 57°36' E 011°01'3 2.5
2014-Jul-27 21:24N 57°33' E 010°59'2 2.5
2014-Jul-27 20:33N 57°32' E 010°56'3 2.6
2014-Jul-27 19:31N 57°30' E 010°52'5 4.9
2014-Jul-27 18:33N 57°29' E 010°44'7 1.7
2014-Jul-27 14:17N 57°30' E 010°30'0 0.0
2014-Jul-27 13:33N 57°30' E 010°30'0 0.0
2014-Jul-27 12:34N 57°30' E 010°30'0 0.0
2014-Jul-27 11:26N 57°30' E 010°30'0 0.0
2014-Jul-27 08:32N 57°30' E 010°30'0 0.0
2014-Jul-27 00:17N 57°30' E 010°30'0 0.0
2014-Jul-26 23:33N 57°30' E 010°30'0 0.0
2014-Jul-26 22:32N 57°30' E 010°30'0 0.0
2014-Jul-26 21:05N 57°30' E 010°30'0 0.0
2014-Jul-26 20:33N 57°30' E 010°30'0 0.0
2014-Jul-26 19:33N 57°30' E 010°30'0 0.0
2014-Jul-26 18:34N 57°30' E 010°30'0 0.0
2014-Jul-26 17:33N 57°30' E 010°30'0 0.0
2014-Jul-26 14:33N 57°30' E 010°30'0 0.0
2014-Jul-26 13:33N 57°30' E 010°30'0 0.0
2014-Jul-26 12:10N 57°30' E 010°30'0 0.0
2014-Jul-26 11:33N 57°30' E 010°30'0 0.0
2014-Jul-26 10:32N 57°30' E 010°30'0 0.0
2014-Jul-26 09:29N 57°30' E 010°30'0 0.0
2014-Jul-26 08:33N 57°30' E 010°30'0 0.0
2014-Jul-26 07:23N 57°30' E 010°30'0 0.0
2014-Jul-26 06:33N 57°30' E 010°30'0 0.0
2014-Jul-26 05:33N 57°30' E 010°30'0 0.0
2014-Jul-26 04:33N 57°30' E 010°30'0 0.0
2014-Jul-26 03:33N 57°30' E 010°30'0 0.0
2014-Jul-26 02:33N 57°30' E 010°30'0 0.0
2014-Jul-26 01:32N 57°30' E 010°30'0 0.0
2014-Jul-26 00:34N 57°30' E 010°30'0 0.0
2014-Jul-25 23:33N 57°30' E 010°30'0 0.0
2014-Jul-25 22:32N 57°30' E 010°30'0 0.0
2014-Jul-25 21:33N 57°30' E 010°30'0 0.0
2014-Jul-25 20:33N 57°30' E 010°30'0 0.0
2014-Jul-25 19:11N 57°30' E 010°30'0 0.0
2014-Jul-25 17:33N 57°30' E 010°30'0 0.0
2014-Jul-25 16:33N 57°30' E 010°30'0 0.0
2014-Jul-25 13:29N 57°30' E 010°30'0 0.0
2014-Jul-25 10:08N 57°30' E 010°30'0 0.0
2014-Jul-25 09:33N 57°30' E 010°30'0 0.0
2014-Jul-25 08:33N 57°30' E 010°30'0 0.0
2014-Jul-25 07:32N 57°30' E 010°30'0 0.0
2014-Jul-25 06:33N 57°30' E 010°30'0 0.0
2014-Jul-25 05:32N 57°30' E 010°30'2 1.7
2014-Jul-25 04:33N 57°30' E 010°34'5 4.9
2014-Jul-25 03:33N 57°28' E 010°42'3 3.2
2014-Jul-25 02:33N 57°27' E 010°48'3 2.6
2014-Jul-25 01:33N 57°30' E 010°47'3 2.7
2014-Jul-25 00:34N 57°33' E 010°47'3 2.7
2014-Jul-24 23:34N 57°35' E 010°47'1 0.7
2014-Jul-24 22:34N 57°36' E 010°47'3 2.6
2014-Jul-24 21:34N 57°34' E 010°49'3 2.6
2014-Jul-24 20:34N 57°31' E 010°49'3 2.5
2014-Jul-24 19:33N 57°28' E 010°48'5 4.8
2014-Jul-24 18:33N 57°28' E 010°39'5 4.9
2014-Jul-24 17:33N 57°30' E 010°30'0 0.0
2014-Jul-24 16:33N 57°30' E 010°30'0 0.0
2014-Jul-24 15:33N 57°30' E 010°30'0 0.0
2014-Jul-24 14:18N 57°30' E 010°30'0 0.0
2014-Jul-24 13:30N 57°30' E 010°30'0 0.0
2014-Jul-24 11:32N 57°30' E 010°30'0 0.0
2014-Jul-24 10:33N 57°30' E 010°30'0 0.0
2014-Jul-24 09:33N 57°30' E 010°30'0 0.0
2014-Jul-24 08:34N 57°30' E 010°30'0 0.0
2014-Jul-24 07:23N 57°30' E 010°30'0 0.0
2014-Jul-24 06:31N 57°30' E 010°30'0 0.0
2014-Jul-24 05:33N 57°30' E 010°30'2 2.0
2014-Jul-24 04:34N 57°31' E 010°34'6 5.8
2014-Jul-24 03:33N 57°30' E 010°45'4 3.6
2014-Jul-24 02:33N 57°30' E 010°51'2 2.5
2014-Jul-24 01:34N 57°32' E 010°54'2 2.4
2014-Jul-24 00:33N 57°34' E 010°56'3 2.5
2014-Jul-23 23:33N 57°37' E 010°56'1 0.8
2014-Jul-23 22:33N 57°37' E 010°56'2 2.5
2014-Jul-23 21:33N 57°35' E 010°54'3 2.6
2014-Jul-23 20:33N 57°33' E 010°53'3 2.5
2014-Jul-23 19:33N 57°30' E 010°52'6 5.6
2014-Jul-23 18:33N 57°30' E 010°41'6 5.9
2014-Jul-23 17:33N 57°30' E 010°30'0 0.0
2014-Jul-23 15:08N 57°30' E 010°30'0 0.0
2014-Jul-23 14:08N 57°30' E 010°30'0 0.0
2014-Jul-23 13:33N 57°30' E 010°30'0 0.0
2014-Jul-23 12:33N 57°30' E 010°30'0 0.0
2014-Jul-23 11:33N 57°30' E 010°30'0 0.0
2014-Jul-23 10:33N 57°30' E 010°30'0 0.0
2014-Jul-23 09:33N 57°30' E 010°30'0 0.0
2014-Jul-23 08:14N 57°30' E 010°30'0 0.0
2014-Jul-23 07:34N 57°30' E 010°30'0 0.0
2014-Jul-23 06:33N 57°30' E 010°30'0 0.0
2014-Jul-23 05:27N 57°30' E 010°30'2 2.5
2014-Jul-23 04:33N 57°31' E 010°34'5 4.8
2014-Jul-23 03:33N 57°30' E 010°43'4 4.3
2014-Jul-23 02:33N 57°30' E 010°51'3 2.5
2014-Jul-23 01:33N 57°32' E 010°54'3 2.5
2014-Jul-23 00:33N 57°34' E 010°56'2 2.5
2014-Jul-22 23:33N 57°37' E 010°57'1 0.6
2014-Jul-22 22:32N 57°37' E 010°56'3 2.5
2014-Jul-22 21:31N 57°35' E 010°55'2 2.5
2014-Jul-22 20:33N 57°32' E 010°55'3 2.5
2014-Jul-22 19:33N 57°30' E 010°52'5 5.5
2014-Jul-22 18:33N 57°30' E 010°42'6 6.2
2014-Jul-22 17:34N 57°30' E 010°30'0 0.0
2014-Jul-22 16:33N 57°30' E 010°30'0 0.0
2014-Jul-22 15:34N 57°30' E 010°30'0 0.0
2014-Jul-22 14:33N 57°30' E 010°30'0 0.0
2014-Jul-22 13:33N 57°30' E 010°30'0 0.0
2014-Jul-22 12:34N 57°30' E 010°30'0 0.0
2014-Jul-22 11:33N 57°30' E 010°30'0 0.0
2014-Jul-22 10:33N 57°30' E 010°30'0 0.0
2014-Jul-22 09:33N 57°30' E 010°30'0 0.0
2014-Jul-22 08:33N 57°30' E 010°30'0 0.0
2014-Jul-22 07:34N 57°30' E 010°30'0 0.0
2014-Jul-22 06:33N 57°30' E 010°30'0 0.0
2014-Jul-22 05:33N 57°30' E 010°30'4 4.3
2014-Jul-22 04:33N 57°31' E 010°38'8 8.1
2014-Jul-22 03:33N 57°34' E 010°52'6 6.5
2014-Jul-22 02:33N 57°37' E 011°02'2 2.2
2014-Jul-22 01:33N 57°39' E 011°05'3 2.5
2014-Jul-22 00:33N 57°41' E 011°06'3 2.5
2014-Jul-21 23:33N 57°43' E 011°04'1 0.7
2014-Jul-21 22:34N 57°44' E 011°02'2 2.3
2014-Jul-21 21:33N 57°42' E 011°06'3 2.5
2014-Jul-21 20:33N 57°40' E 011°06'1 2.5
2014-Jul-21 20:18N 57°39' E 011°05'2 3.0
2014-Jul-21 19:33N 57°37' E 011°03'7 7.3
2014-Jul-21 18:32N 57°34' E 010°51'8 7.8
2014-Jul-21 17:33N 57°31' E 010°37'4 3.5
2014-Jul-21 16:24N 57°30' E 010°30'0 0.0
2014-Jul-21 15:33N 57°30' E 010°30'0 0.0
2014-Jul-21 14:31N 57°30' E 010°30'0 0.0
2014-Jul-21 13:24N 57°30' E 010°30'0 0.0
2014-Jul-21 12:32N 57°30' E 010°30'0 0.0
2014-Jul-21 11:33N 57°30' E 010°30'0 0.0
2014-Jul-21 10:33N 57°30' E 010°30'0 0.0
2014-Jul-21 09:33N 57°30' E 010°30'0 0.0
2014-Jul-21 08:33N 57°30' E 010°30'0 0.0
2014-Jul-21 07:31N 57°30' E 010°30'0 0.0
2014-Jul-21 06:33N 57°30' E 010°30'1 0.9
2014-Jul-21 05:27N 57°30' E 010°32'1 1.6
2014-Jul-21 04:32N 57°30' E 010°35'7 7.2
2014-Jul-21 03:31N 57°30' E 010°48'3 3.3
2014-Jul-21 02:32N 57°30' E 010°54'2 2.5
2014-Jul-21 01:33N 57°32' E 010°57'2 2.5
2014-Jul-21 00:33N 57°34' E 010°60'3 2.6
2014-Jul-20 23:33N 57°35' E 011°03'2 1.7
2014-Jul-20 22:34N 57°34' E 011°02'3 2.5
2014-Jul-20 21:34N 57°32' E 010°59'3 2.5
2014-Jul-20 20:34N 57°30' E 010°55'3 3.0
2014-Jul-20 19:33N 57°29' E 010°50'9 7.7
2014-Jul-20 18:26N 57°29' E 010°34'2 2.2
2014-Jul-20 17:32N 57°30' E 010°30'0 0.0
2014-Jul-20 16:33N 57°30' E 010°30'0 0.0
2014-Jul-20 15:33N 57°30' E 010°30'0 0.0
2014-Jul-20 14:33N 57°30' E 010°30'0 0.0
2014-Jul-20 13:33N 57°30' E 010°30'0 0.0
2014-Jul-20 12:33N 57°30' E 010°30'0 0.0
2014-Jul-20 11:33N 57°30' E 010°30'0 0.0
2014-Jul-20 10:32N 57°30' E 010°30'0 0.0
2014-Jul-20 07:11N 57°30' E 010°30'0 0.0
2014-Jul-20 06:21N 57°30' E 010°30'  

Dump ship's entire track history